createdAt,value
2018-05-04T00:00:29.468Z,1016.01
2018-05-04T00:01:29.482Z,1016.03
2018-05-04T00:02:29.502Z,1016.00
2018-05-04T00:03:29.519Z,1016.01
2018-05-04T00:04:29.538Z,1016.05
2018-05-04T00:05:29.557Z,1016.04
2018-05-04T00:06:29.575Z,1016.06
2018-05-04T00:07:29.594Z,1016.06
2018-05-04T00:08:29.618Z,1016.08
2018-05-04T00:09:29.630Z,1016.07
2018-05-04T00:10:29.652Z,1016.08
2018-05-04T00:11:29.667Z,1016.13
2018-05-04T00:12:29.689Z,1016.11
2018-05-04T00:13:29.704Z,1016.17
2018-05-04T00:14:29.723Z,1016.14
2018-05-04T00:15:29.742Z,1016.17
2018-05-04T00:16:29.759Z,1016.20
2018-05-04T00:17:29.777Z,1016.16
2018-05-04T00:18:29.796Z,1016.20
2018-05-04T00:19:29.814Z,1016.20
2018-05-04T00:20:29.839Z,1016.19
2018-05-04T00:21:29.855Z,1016.20
2018-05-04T00:22:29.868Z,1016.18
2018-05-04T00:23:29.960Z,1016.18
2018-05-04T00:24:29.906Z,1016.19
2018-05-04T00:25:29.924Z,1016.13
2018-05-04T00:26:29.942Z,1016.17
2018-05-04T00:27:29.961Z,1016.19
2018-05-04T00:28:29.978Z,1016.16
2018-05-04T00:29:29.997Z,1016.21
2018-05-04T00:30:30.016Z,1016.17
2018-05-04T00:31:30.039Z,1016.14
2018-05-04T00:32:30.054Z,1016.18
2018-05-04T00:33:30.070Z,1016.15
2018-05-04T00:34:30.089Z,1016.13
2018-05-04T00:35:30.108Z,1016.12
2018-05-04T00:36:30.125Z,1016.16
2018-05-04T00:37:30.143Z,1016.16
2018-05-04T00:38:30.163Z,1016.17
2018-05-04T00:39:30.185Z,1016.18
2018-05-04T00:40:30.200Z,1016.20
2018-05-04T00:41:30.216Z,1016.19
2018-05-04T00:42:30.235Z,1016.16
2018-05-04T00:43:30.253Z,1016.14
2018-05-04T00:44:30.272Z,1016.15
2018-05-04T00:45:30.613Z,1016.11
2018-05-04T00:46:30.317Z,1016.15
2018-05-04T00:47:30.331Z,1016.13
2018-05-04T00:48:30.351Z,1016.12
2018-05-04T00:49:30.363Z,1016.13
2018-05-04T00:50:30.783Z,1016.11
2018-05-04T00:51:30.400Z,1016.10
2018-05-04T00:52:30.418Z,1016.16
2018-05-04T00:53:30.435Z,1016.20
2018-05-04T00:54:30.454Z,1016.17
2018-05-04T00:55:30.472Z,1016.19
2018-05-04T00:56:30.495Z,1016.22
2018-05-04T00:57:30.509Z,1016.18
2018-05-04T00:58:30.532Z,1016.24
2018-05-04T00:59:30.547Z,1016.29
2018-05-04T01:00:30.564Z,1016.31
2018-05-04T01:01:30.582Z,1016.34
2018-05-04T01:02:30.600Z,1016.37
2018-05-04T01:03:30.619Z,1016.38
2018-05-04T01:04:30.637Z,1016.37
2018-05-04T01:05:30.655Z,1016.37
2018-05-04T01:06:30.673Z,1016.38
2018-05-04T01:07:30.695Z,1016.36
2018-05-04T01:08:30.709Z,1016.42
2018-05-04T01:09:30.728Z,1016.44
2018-05-04T01:10:30.745Z,1016.38
2018-05-04T01:11:30.764Z,1016.41
2018-05-04T01:12:30.783Z,1016.41
2018-05-04T01:13:30.800Z,1016.42
2018-05-04T01:14:30.819Z,1016.44
2018-05-04T01:15:30.837Z,1016.45
2018-05-04T01:16:30.858Z,1016.42
2018-05-04T01:17:30.873Z,1016.43
2018-05-04T01:18:30.893Z,1016.40
2018-05-04T01:19:30.909Z,1016.42
2018-05-04T01:20:30.929Z,1016.43
2018-05-04T01:21:30.945Z,1016.45
2018-05-04T01:22:30.965Z,1016.45
2018-05-04T01:23:30.981Z,1016.41
2018-05-04T01:24:31.000Z,1016.44
2018-05-04T01:25:31.020Z,1016.51
2018-05-04T01:26:31.037Z,1016.50
2018-05-04T01:27:31.096Z,1016.50
2018-05-04T01:28:31.073Z,1016.49
2018-05-04T01:29:31.091Z,1016.50
2018-05-04T01:30:31.109Z,1016.47
2018-05-04T01:31:31.130Z,1016.46
2018-05-04T01:32:31.151Z,1016.50
2018-05-04T01:33:31.163Z,1016.52
2018-05-04T01:34:31.180Z,1016.55
2018-05-04T01:35:31.200Z,1016.55
2018-05-04T01:36:31.217Z,1016.58
2018-05-04T01:37:31.233Z,1016.56
2018-05-04T01:38:31.254Z,1016.60
2018-05-04T01:39:31.271Z,1016.62
2018-05-04T01:40:31.289Z,1016.64
2018-05-04T01:41:31.307Z,1016.66
2018-05-04T01:42:31.327Z,1016.70
2018-05-04T01:43:31.343Z,1016.71
2018-05-04T01:44:31.363Z,1016.73
2018-05-04T01:45:31.380Z,1016.69
2018-05-04T01:46:31.409Z,1016.71
2018-05-04T01:47:31.417Z,1016.70
2018-05-04T01:48:31.434Z,1016.75
2018-05-04T01:49:31.453Z,1016.78
2018-05-04T01:50:31.472Z,1016.76
2018-05-04T01:51:31.488Z,1016.83
2018-05-04T01:52:31.507Z,1016.82
2018-05-04T01:53:31.524Z,1016.83
2018-05-04T01:54:31.544Z,1016.84
2018-05-04T01:55:31.561Z,1016.81
2018-05-04T01:56:31.579Z,1016.83
2018-05-04T01:57:31.597Z,1016.79
2018-05-04T01:58:31.615Z,1016.82
2018-05-04T01:59:31.632Z,1016.77
2018-05-04T02:00:31.650Z,1016.79
2018-05-04T02:01:31.671Z,1016.76
2018-05-04T02:02:31.686Z,1016.83
2018-05-04T02:03:31.706Z,1016.82
2018-05-04T02:04:31.723Z,1016.88
2018-05-04T02:05:31.741Z,1016.84
2018-05-04T02:06:31.760Z,1016.87
2018-05-04T02:07:31.777Z,1016.89
2018-05-04T02:08:31.797Z,1016.86
2018-05-04T02:09:31.814Z,1016.89
2018-05-04T02:10:31.831Z,1016.89
2018-05-04T02:11:31.849Z,1016.86
2018-05-04T02:12:31.866Z,1016.87
2018-05-04T02:13:31.885Z,1016.87
2018-05-04T02:14:31.905Z,1016.86
2018-05-04T02:15:31.921Z,1016.83
2018-05-04T02:16:31.940Z,1016.79
2018-05-04T02:17:31.957Z,1016.82
2018-05-04T02:18:31.977Z,1016.79
2018-05-04T02:19:31.993Z,1016.81
2018-05-04T02:20:32.011Z,1016.83
2018-05-04T02:21:32.028Z,1016.81
2018-05-04T02:22:32.052Z,1016.82
2018-05-04T02:23:32.069Z,1016.81
2018-05-04T02:24:32.082Z,1016.84
2018-05-04T02:25:32.101Z,1016.84
2018-05-04T02:26:32.118Z,1016.84
2018-05-04T02:27:32.139Z,1016.89
2018-05-04T02:28:32.155Z,1016.85
2018-05-04T02:29:32.173Z,1016.86
2018-05-04T02:30:32.193Z,1016.89
2018-05-04T02:31:32.207Z,1016.89
2018-05-04T02:32:32.225Z,1016.85
2018-05-04T02:33:32.242Z,1016.85
2018-05-04T02:34:32.261Z,1016.80
2018-05-04T02:35:32.279Z,1016.78
2018-05-04T02:36:32.297Z,1016.78
2018-05-04T02:37:32.314Z,1016.79
2018-05-04T02:38:32.332Z,1016.83
2018-05-04T02:39:32.351Z,1016.83
2018-05-04T02:40:32.368Z,1016.82
2018-05-04T02:41:32.384Z,1016.86
2018-05-04T02:42:32.405Z,1016.82
2018-05-04T02:43:32.424Z,1016.84
2018-05-04T02:44:32.439Z,1016.82
2018-05-04T02:45:32.457Z,1016.84
2018-05-04T02:46:32.474Z,1016.85
2018-05-04T02:47:32.492Z,1016.88
2018-05-04T02:48:32.511Z,1016.87
2018-05-04T02:49:32.527Z,1016.88
2018-05-04T02:50:32.550Z,1016.89
2018-05-04T02:51:32.564Z,1016.84
2018-05-04T02:52:32.587Z,1016.81
2018-05-04T02:53:32.602Z,1016.76
2018-05-04T02:54:32.622Z,1016.78
2018-05-04T02:55:32.750Z,1016.78
2018-05-04T02:56:32.652Z,1016.77
2018-05-04T02:57:32.670Z,1016.73
2018-05-04T02:58:32.689Z,1016.70
2018-05-04T02:59:32.706Z,1016.69
2018-05-04T03:00:32.725Z,1016.68
2018-05-04T03:01:32.741Z,1016.64
2018-05-04T03:02:32.759Z,1016.65
2018-05-04T03:03:32.778Z,1016.64
2018-05-04T03:04:32.796Z,1016.63
2018-05-04T03:05:32.813Z,1016.59
2018-05-04T03:06:32.831Z,1016.64
2018-05-04T03:07:32.849Z,1016.62
2018-05-04T03:08:32.868Z,1016.56
2018-05-04T03:09:32.886Z,1016.60
2018-05-04T03:10:32.902Z,1016.56
2018-05-04T03:11:32.920Z,1016.56
2018-05-04T03:12:32.942Z,1016.58
2018-05-04T03:13:32.955Z,1016.56
2018-05-04T03:14:32.973Z,1016.53
2018-05-04T03:15:32.990Z,1016.48
2018-05-04T03:16:33.009Z,1016.48
2018-05-04T03:17:33.026Z,1016.48
2018-05-04T03:18:33.045Z,1016.46
2018-05-04T03:19:33.062Z,1016.46
2018-05-04T03:20:33.079Z,1016.45
2018-05-04T03:21:33.096Z,1016.45
2018-05-04T03:22:33.114Z,1016.44
2018-05-04T03:23:33.132Z,1016.44
2018-05-04T03:24:33.151Z,1016.43
2018-05-04T03:25:33.169Z,1016.41
2018-05-04T03:26:33.187Z,1016.40
2018-05-04T03:27:33.203Z,1016.37
2018-05-04T03:28:33.222Z,1016.37
2018-05-04T03:29:33.241Z,1016.37
2018-05-04T03:30:33.257Z,1016.35
2018-05-04T03:31:33.284Z,1016.38
2018-05-04T03:32:33.292Z,1016.33
2018-05-04T03:33:33.313Z,1016.36
2018-05-04T03:34:33.328Z,1016.37
2018-05-04T03:35:33.345Z,1016.40
2018-05-04T03:36:33.363Z,1016.39
2018-05-04T03:37:33.380Z,1016.39
2018-05-04T03:38:33.399Z,1016.38
2018-05-04T03:39:33.416Z,1016.40
2018-05-04T03:40:33.433Z,1016.39
2018-05-04T03:41:33.456Z,1016.40
2018-05-04T03:42:33.469Z,1016.38
2018-05-04T03:43:33.487Z,1016.37
2018-05-04T03:44:33.506Z,1016.39
2018-05-04T03:45:33.523Z,1016.38
2018-05-04T03:46:33.539Z,1016.39
2018-05-04T03:47:33.562Z,1016.41
2018-05-04T03:48:33.575Z,1016.39
2018-05-04T03:49:33.592Z,1016.41
2018-05-04T03:50:33.610Z,1016.42
2018-05-04T03:51:33.628Z,1016.41
2018-05-04T03:52:33.646Z,1016.47
2018-05-04T03:53:33.663Z,1016.45
2018-05-04T03:54:33.680Z,1016.48
2018-05-04T03:55:33.698Z,1016.43
2018-05-04T03:56:33.716Z,1016.50
2018-05-04T03:57:33.734Z,1016.45
2018-05-04T03:58:33.751Z,1016.44
2018-05-04T03:59:33.769Z,1016.47
2018-05-04T04:00:33.786Z,1016.48
2018-05-04T04:01:33.803Z,1016.47
2018-05-04T04:02:33.874Z,1016.49
2018-05-04T04:03:33.840Z,1016.49
2018-05-04T04:04:33.857Z,1016.51
2018-05-04T04:05:33.874Z,1016.47
2018-05-04T04:06:33.892Z,1016.51
2018-05-04T04:07:33.910Z,1016.45
2018-05-04T04:08:33.928Z,1016.48
2018-05-04T04:09:33.943Z,1016.46
2018-05-04T04:10:33.962Z,1016.48
2018-05-04T04:11:33.984Z,1016.50
2018-05-04T04:12:34.039Z,1016.43
2018-05-04T04:13:34.015Z,1016.46
2018-05-04T04:14:34.039Z,1016.52
2018-05-04T04:15:34.051Z,1016.52
2018-05-04T04:16:34.073Z,1016.54
2018-05-04T04:17:34.086Z,1016.57
2018-05-04T04:18:34.103Z,1016.59
2018-05-04T04:19:34.122Z,1016.60
2018-05-04T04:20:34.139Z,1016.64
2018-05-04T04:21:34.159Z,1016.60
2018-05-04T04:22:34.174Z,1016.67
2018-05-04T04:23:34.193Z,1016.70
2018-05-04T04:24:34.210Z,1016.70
2018-05-04T04:25:34.227Z,1016.75
2018-05-04T04:26:34.244Z,1016.73
2018-05-04T04:27:34.262Z,1016.75
2018-05-04T04:28:34.280Z,1016.77
2018-05-04T04:29:34.297Z,1016.77
2018-05-04T04:30:34.316Z,1016.77
2018-05-04T04:31:34.332Z,1016.80
2018-05-04T04:32:34.350Z,1016.83
2018-05-04T04:33:34.368Z,1016.79
2018-05-04T04:34:34.385Z,1016.83
2018-05-04T04:35:34.404Z,1016.82
2018-05-04T04:36:34.420Z,1016.82
2018-05-04T04:37:34.505Z,1016.91
2018-05-04T04:38:34.456Z,1016.87
2018-05-04T04:39:34.473Z,1016.85
2018-05-04T04:40:34.490Z,1016.91
2018-05-04T04:41:34.508Z,1016.93
2018-05-04T04:42:34.526Z,1016.95
2018-05-04T04:43:34.544Z,1016.93
2018-05-04T04:44:34.561Z,1016.97
2018-05-04T04:45:34.602Z,1016.98
2018-05-04T04:46:34.597Z,1017.04
2018-05-04T04:47:34.615Z,1017.02
2018-05-04T04:48:34.633Z,1017.01
2018-05-04T04:49:34.650Z,1017.00
2018-05-04T04:50:34.667Z,1017.05
2018-05-04T04:51:34.763Z,1017.05
2018-05-04T04:52:34.705Z,1017.08
2018-05-04T04:53:34.719Z,1017.10
2018-05-04T04:54:34.738Z,1017.14
2018-05-04T04:55:34.757Z,1017.09
2018-05-04T04:56:34.774Z,1017.10
2018-05-04T04:57:34.790Z,1017.15
2018-05-04T04:58:34.810Z,1017.15
2018-05-04T04:59:34.828Z,1017.10
2018-05-04T05:00:34.846Z,1017.15
2018-05-04T05:01:34.862Z,1017.14
2018-05-04T05:02:34.883Z,1017.15
2018-05-04T05:03:34.898Z,1017.19
2018-05-04T05:04:34.916Z,1017.20
2018-05-04T05:05:34.936Z,1017.19
2018-05-04T05:06:34.951Z,1017.24
2018-05-04T05:07:34.969Z,1017.24
2018-05-04T05:08:34.986Z,1017.24
2018-05-04T05:09:35.004Z,1017.26
2018-05-04T05:10:35.055Z,1017.26
2018-05-04T05:11:35.050Z,1017.30
2018-05-04T05:12:35.058Z,1017.35
2018-05-04T05:13:35.132Z,1017.37
2018-05-04T05:14:35.094Z,1017.41
2018-05-04T05:15:35.112Z,1017.42
2018-05-04T05:16:35.133Z,1017.45
2018-05-04T05:17:35.146Z,1017.45
2018-05-04T05:18:35.164Z,1017.53
2018-05-04T05:19:35.183Z,1017.48
2018-05-04T05:20:35.201Z,1017.47
2018-05-04T05:21:35.218Z,1017.50
2018-05-04T05:22:35.235Z,1017.50
2018-05-04T05:23:35.259Z,1017.48
2018-05-04T05:24:35.272Z,1017.49
2018-05-04T05:25:35.290Z,1017.49
2018-05-04T05:26:35.309Z,1017.42
2018-05-04T05:27:35.326Z,1017.41
2018-05-04T05:28:35.347Z,1017.41
2018-05-04T05:29:35.407Z,1017.44
2018-05-04T05:30:35.380Z,1017.50
2018-05-04T05:31:35.398Z,1017.49
2018-05-04T05:32:35.416Z,1017.50
2018-05-04T05:33:35.435Z,1017.54
2018-05-04T05:34:35.451Z,1017.55
2018-05-04T05:35:35.582Z,1017.55
2018-05-04T05:36:35.488Z,1017.57
2018-05-04T05:37:35.505Z,1017.63
2018-05-04T05:38:35.525Z,1017.63
2018-05-04T05:39:35.544Z,1017.64
2018-05-04T05:40:35.560Z,1017.61
2018-05-04T05:41:35.579Z,1017.59
2018-05-04T05:42:35.597Z,1017.59
2018-05-04T05:43:35.615Z,1017.59
2018-05-04T05:44:35.635Z,1017.61
2018-05-04T05:45:35.653Z,1017.61
2018-05-04T05:46:35.671Z,1017.63
2018-05-04T05:47:35.690Z,1017.68
2018-05-04T05:48:35.713Z,1017.66
2018-05-04T05:49:35.728Z,1017.68
2018-05-04T05:50:35.748Z,1017.73
2018-05-04T05:51:35.765Z,1017.77
2018-05-04T05:52:35.785Z,1017.72
2018-05-04T05:53:35.804Z,1017.71
2018-05-04T05:54:35.839Z,1017.72
2018-05-04T05:55:35.841Z,1017.71
2018-05-04T05:56:35.861Z,1017.70
2018-05-04T05:57:35.879Z,1017.69
2018-05-04T05:58:35.907Z,1017.71
2018-05-04T05:59:35.917Z,1017.73
2018-05-04T06:00:35.936Z,1017.69
2018-05-04T06:01:35.954Z,1017.68
2018-05-04T06:02:35.972Z,1017.72
2018-05-04T06:03:35.992Z,1017.71
2018-05-04T06:04:36.012Z,1017.75
2018-05-04T06:05:36.036Z,1017.75
2018-05-04T06:06:36.049Z,1017.72
2018-05-04T06:07:36.070Z,1017.74
2018-05-04T06:08:36.085Z,1017.70
2018-05-04T06:09:36.108Z,1017.65
2018-05-04T06:10:36.125Z,1017.69
2018-05-04T06:11:36.143Z,1017.67
2018-05-04T06:12:36.165Z,1017.67
2018-05-04T06:13:36.184Z,1017.69
2018-05-04T06:14:36.199Z,1017.67
2018-05-04T06:15:36.217Z,1017.73
2018-05-04T06:16:36.240Z,1017.73
2018-05-04T06:17:36.259Z,1017.77
2018-05-04T06:18:36.274Z,1017.81
2018-05-04T06:19:36.292Z,1017.80
2018-05-04T06:20:36.313Z,1017.80
2018-05-04T06:21:36.330Z,1017.77
2018-05-04T06:22:36.350Z,1017.82
2018-05-04T06:23:36.368Z,1017.83
2018-05-04T06:24:36.388Z,1017.79
2018-05-04T06:25:36.408Z,1017.81
2018-05-04T06:26:36.424Z,1017.78
2018-05-04T06:27:36.444Z,1017.79
2018-05-04T06:28:36.468Z,1017.80
2018-05-04T06:29:36.481Z,1017.78
2018-05-04T06:30:36.500Z,1017.77
2018-05-04T06:31:36.521Z,1017.81
2018-05-04T06:32:36.538Z,1017.77
2018-05-04T06:33:36.556Z,1017.74
2018-05-04T06:34:36.580Z,1017.77
2018-05-04T06:35:36.600Z,1017.72
2018-05-04T06:36:36.619Z,1017.71
2018-05-04T06:37:36.632Z,1017.73
2018-05-04T06:38:36.653Z,1017.73
2018-05-04T06:39:36.673Z,1017.73
2018-05-04T06:40:36.689Z,1017.74
2018-05-04T06:41:36.708Z,1017.77
2018-05-04T06:42:36.727Z,1017.77
2018-05-04T06:43:36.746Z,1017.73
2018-05-04T06:44:36.768Z,1017.77
2018-05-04T06:45:36.784Z,1017.78
2018-05-04T06:46:36.804Z,1017.78
2018-05-04T06:47:36.823Z,1017.80
2018-05-04T06:48:36.875Z,1017.78
2018-05-04T06:49:36.861Z,1017.76
2018-05-04T06:50:36.880Z,1017.73
2018-05-04T06:51:36.900Z,1017.71
2018-05-04T06:52:36.924Z,1017.72
2018-05-04T06:53:36.988Z,1017.70
2018-05-04T06:54:36.957Z,1017.69
2018-05-04T06:55:36.976Z,1017.73
2018-05-04T06:56:36.997Z,1017.71
2018-05-04T06:57:37.015Z,1017.78
2018-05-04T06:58:37.034Z,1017.81
2018-05-04T06:59:37.055Z,1017.82
2018-05-04T07:00:37.073Z,1017.78
2018-05-04T07:01:37.094Z,1017.81
2018-05-04T07:02:37.112Z,1017.79
2018-05-04T07:03:37.133Z,1017.82
2018-05-04T07:04:37.152Z,1017.85
2018-05-04T07:05:37.170Z,1017.83
2018-05-04T07:06:37.190Z,1017.84
2018-05-04T07:07:37.210Z,1017.86
2018-05-04T07:08:37.230Z,1017.88
2018-05-04T07:09:37.250Z,1017.90
2018-05-04T07:10:37.268Z,1017.93
2018-05-04T07:11:37.288Z,1017.90
2018-05-04T07:12:37.309Z,1017.94
2018-05-04T07:13:37.328Z,1017.93
2018-05-04T07:14:37.346Z,1017.95
2018-05-04T07:15:37.366Z,1017.97
2018-05-04T07:16:37.390Z,1017.98
2018-05-04T07:17:37.404Z,1017.93
2018-05-04T07:18:37.425Z,1017.99
2018-05-04T07:19:37.450Z,1018.00
2018-05-04T07:20:37.465Z,1018.04
2018-05-04T07:21:37.488Z,1017.99
2018-05-04T07:22:37.506Z,1018.00
2018-05-04T07:23:37.524Z,1017.91
2018-05-04T07:24:37.543Z,1017.85
2018-05-04T07:25:37.563Z,1017.86
2018-05-04T07:26:37.584Z,1017.89
2018-05-04T07:27:37.603Z,1017.87
2018-05-04T07:28:37.626Z,1017.89
2018-05-04T07:29:37.644Z,1017.83
2018-05-04T07:30:37.666Z,1017.85
2018-05-04T07:31:37.684Z,1017.85
2018-05-04T07:32:37.705Z,1017.85
2018-05-04T07:33:37.725Z,1017.89
2018-05-04T07:34:37.745Z,1017.91
2018-05-04T07:35:37.766Z,1017.90
2018-05-04T07:36:37.788Z,1017.90
2018-05-04T07:37:37.808Z,1017.95
2018-05-04T07:38:37.828Z,1017.95
2018-05-04T07:39:37.850Z,1018.01
2018-05-04T07:40:37.871Z,1017.99
2018-05-04T07:41:37.892Z,1017.96
2018-05-04T07:42:37.915Z,1017.96
2018-05-04T07:43:37.935Z,1017.99
2018-05-04T07:44:37.956Z,1017.96
2018-05-04T07:45:37.985Z,1017.97
2018-05-04T07:46:38.007Z,1017.95
2018-05-04T07:47:38.021Z,1017.97
2018-05-04T07:48:38.044Z,1017.99
2018-05-04T07:49:38.062Z,1017.98
2018-05-04T07:50:38.083Z,1017.97
2018-05-04T07:51:38.104Z,1017.99
2018-05-04T07:52:38.128Z,1018.01
2018-05-04T07:53:38.154Z,1017.99
2018-05-04T07:54:38.169Z,1018.00
2018-05-04T07:55:38.190Z,1017.99
2018-05-04T07:56:38.223Z,1018.01
2018-05-04T07:57:38.231Z,1017.94
2018-05-04T07:58:38.253Z,1017.98
2018-05-04T07:59:38.275Z,1017.96
2018-05-04T08:00:38.299Z,1017.95
2018-05-04T08:01:38.317Z,1017.95
2018-05-04T08:02:38.340Z,1017.95
2018-05-04T08:03:38.360Z,1017.94
2018-05-04T08:04:38.381Z,1017.94
2018-05-04T08:05:38.402Z,1017.96
2018-05-04T08:06:38.425Z,1017.94
2018-05-04T08:07:38.446Z,1017.93
2018-05-04T08:08:38.570Z,1017.98
2018-05-04T08:09:38.488Z,1017.95
2018-05-04T08:10:38.511Z,1017.94
2018-05-04T08:11:38.531Z,1017.90
2018-05-04T08:12:38.553Z,1017.93
2018-05-04T08:13:38.574Z,1017.93
2018-05-04T08:14:38.595Z,1017.92
2018-05-04T08:15:38.617Z,1017.93
2018-05-04T08:16:38.642Z,1017.94
2018-05-04T08:17:38.662Z,1017.96
2018-05-04T08:18:38.681Z,1017.96
2018-05-04T08:19:38.702Z,1017.98
2018-05-04T08:20:38.724Z,1017.96
2018-05-04T08:21:38.896Z,1017.94
2018-05-04T08:22:38.817Z,1017.96
2018-05-04T08:23:38.788Z,1017.98
2018-05-04T08:24:38.812Z,1018.01
2018-05-04T08:25:38.831Z,1018.00
2018-05-04T08:26:38.853Z,1018.02
2018-05-04T08:27:38.875Z,1018.05
2018-05-04T08:28:38.897Z,1018.03
2018-05-04T08:29:38.918Z,1018.02
2018-05-04T08:30:39.257Z,1018.02
2018-05-04T08:31:38.962Z,1018.04
2018-05-04T08:32:38.984Z,1018.05
2018-05-04T08:33:39.064Z,1017.99
2018-05-04T08:34:39.028Z,1018.06
2018-05-04T08:35:39.050Z,1018.05
2018-05-04T08:36:39.073Z,1018.09
2018-05-04T08:37:39.099Z,1018.09
2018-05-04T08:38:39.115Z,1018.04
2018-05-04T08:39:39.136Z,1018.09
2018-05-04T08:40:39.186Z,1018.07
2018-05-04T08:41:39.182Z,1018.06
2018-05-04T08:42:39.218Z,1018.04
2018-05-04T08:43:39.224Z,1018.07
2018-05-04T08:44:39.258Z,1018.04
2018-05-04T08:45:39.271Z,1018.09
2018-05-04T08:46:39.298Z,1018.06
2018-05-04T08:47:39.312Z,1018.07
2018-05-04T08:48:39.345Z,1018.04
2018-05-04T08:49:39.355Z,1018.08
2018-05-04T08:50:39.377Z,1018.02
2018-05-04T08:51:39.425Z,1018.01
2018-05-04T08:52:39.439Z,1017.94
2018-05-04T08:53:39.612Z,1017.93
2018-05-04T08:54:39.653Z,1017.92
2018-05-04T08:55:39.495Z,1017.92
2018-05-04T08:56:39.509Z,1017.89
2018-05-04T08:57:39.537Z,1017.95
2018-05-04T08:58:39.556Z,1017.89
2018-05-04T08:59:39.576Z,1017.89
2018-05-04T09:00:39.678Z,1017.93
2018-05-04T09:01:39.620Z,1017.93
2018-05-04T09:02:39.643Z,1017.96
2018-05-04T09:03:39.745Z,1017.92
2018-05-04T09:04:39.689Z,1017.94
2018-05-04T09:05:39.823Z,1017.94
2018-05-04T09:06:39.734Z,1017.89
2018-05-04T09:07:39.761Z,1017.91
2018-05-04T09:08:39.777Z,1017.91
2018-05-04T09:09:39.834Z,1017.89
2018-05-04T09:10:39.822Z,1017.92
2018-05-04T09:11:39.847Z,1017.97
2018-05-04T09:12:39.927Z,1017.97
2018-05-04T09:13:39.890Z,1017.95
2018-05-04T09:14:39.913Z,1017.91
2018-05-04T09:15:39.936Z,1017.92
2018-05-04T09:16:40.362Z,1017.94
2018-05-04T09:17:39.980Z,1017.89
2018-05-04T09:18:40.090Z,1017.90
2018-05-04T09:19:40.026Z,1017.91
2018-05-04T09:20:40.049Z,1017.90
2018-05-04T09:21:40.069Z,1017.95
2018-05-04T09:22:40.093Z,1017.88
2018-05-04T09:23:40.158Z,1017.90
2018-05-04T09:24:40.139Z,1017.92
2018-05-04T09:25:40.164Z,1017.95
2018-05-04T09:26:40.195Z,1017.94
2018-05-04T09:27:40.207Z,1017.91
2018-05-04T09:28:40.232Z,1017.92
2018-05-04T09:29:40.252Z,1017.90
2018-05-04T09:30:40.299Z,1017.87
2018-05-04T09:31:40.311Z,1017.91
2018-05-04T09:32:40.322Z,1017.84
2018-05-04T09:33:40.341Z,1017.84
2018-05-04T09:34:40.370Z,1017.93
2018-05-04T09:35:40.390Z,1017.91
2018-05-04T09:36:40.411Z,1017.92
2018-05-04T09:37:40.453Z,1017.91
2018-05-04T09:38:40.465Z,1017.92
2018-05-04T09:39:40.479Z,1017.93
2018-05-04T09:40:40.501Z,1017.94
2018-05-04T09:41:40.523Z,1017.93
2018-05-04T09:42:40.549Z,1017.90
2018-05-04T09:43:40.600Z,1017.91
2018-05-04T09:44:40.592Z,1017.84
2018-05-04T09:45:40.613Z,1017.86
2018-05-04T09:46:40.638Z,1017.84
2018-05-04T09:47:42.062Z,1017.86
2018-05-04T09:48:40.684Z,1017.85
2018-05-04T09:49:40.705Z,1017.84
2018-05-04T09:50:40.730Z,1017.82
2018-05-04T09:51:40.750Z,1017.79
2018-05-04T09:52:41.625Z,1017.84
2018-05-04T09:53:40.795Z,1017.80
2018-05-04T09:54:40.819Z,1017.77
2018-05-04T09:55:40.883Z,1017.74
2018-05-04T09:56:40.868Z,1017.79
2018-05-04T09:57:40.886Z,1017.76
2018-05-04T09:58:40.911Z,1017.75
2018-05-04T09:59:40.936Z,1017.77
2018-05-04T10:00:40.958Z,1017.74
2018-05-04T10:01:40.987Z,1017.77
2018-05-04T10:02:41.003Z,1017.77
2018-05-04T10:03:41.028Z,1017.79
2018-05-04T10:04:41.050Z,1017.76
2018-05-04T10:05:41.074Z,1017.74
2018-05-04T10:06:41.654Z,1017.73
2018-05-04T10:07:41.119Z,1017.66
2018-05-04T10:08:41.147Z,1017.68
2018-05-04T10:09:41.164Z,1017.71
2018-05-04T10:10:41.190Z,1017.76
2018-05-04T10:11:41.212Z,1017.75
2018-05-04T10:12:41.238Z,1017.77
2018-05-04T10:13:42.311Z,1017.73
2018-05-04T10:14:41.286Z,1017.72
2018-05-04T10:15:41.310Z,1017.70
2018-05-04T10:16:41.327Z,1017.73
2018-05-04T10:17:41.350Z,1017.77
2018-05-04T10:18:41.375Z,1017.82
2018-05-04T10:19:41.397Z,1017.86
2018-05-04T10:20:41.423Z,1017.84
2018-05-04T10:21:41.446Z,1017.77
2018-05-04T10:22:41.468Z,1017.75
2018-05-04T10:23:41.489Z,1017.71
2018-05-04T10:24:41.517Z,1017.76
2018-05-04T10:25:41.534Z,1017.76
2018-05-04T10:26:41.612Z,1017.74
2018-05-04T10:27:41.586Z,1017.74
2018-05-04T10:28:41.605Z,1017.73
2018-05-04T10:29:41.629Z,1017.70
2018-05-04T10:30:41.651Z,1017.70
2018-05-04T10:31:41.687Z,1017.71
2018-05-04T10:32:41.700Z,1017.70
2018-05-04T10:33:41.721Z,1017.71
2018-05-04T10:34:41.745Z,1017.75
2018-05-04T10:35:41.772Z,1017.70
2018-05-04T10:36:41.792Z,1017.72
2018-05-04T10:37:41.816Z,1017.73
2018-05-04T10:38:42.014Z,1017.66
2018-05-04T10:39:41.863Z,1017.69
2018-05-04T10:40:41.889Z,1017.72
2018-05-04T10:41:42.559Z,1017.66
2018-05-04T10:42:41.934Z,1017.67
2018-05-04T10:43:41.956Z,1017.64
2018-05-04T10:44:41.984Z,1017.64
2018-05-04T10:45:42.003Z,1017.63
2018-05-04T10:46:42.025Z,1017.64
2018-05-04T10:47:42.050Z,1017.65
2018-05-04T10:48:42.078Z,1017.66
2018-05-04T10:49:42.203Z,1017.64
2018-05-04T10:50:42.120Z,1017.67
2018-05-04T10:51:42.144Z,1017.68
2018-05-04T10:52:42.165Z,1017.69
2018-05-04T10:53:42.190Z,1017.66
2018-05-04T10:54:42.213Z,1017.70
2018-05-04T10:55:42.588Z,1017.67
2018-05-04T10:56:42.261Z,1017.64
2018-05-04T10:57:42.283Z,1017.66
2018-05-04T10:58:42.709Z,1017.66
2018-05-04T10:59:42.330Z,1017.71
2018-05-04T11:00:42.358Z,1017.67
2018-05-04T11:01:42.377Z,1017.63
2018-05-04T11:02:42.401Z,1017.62
2018-05-04T11:03:42.426Z,1017.63
2018-05-04T11:04:42.449Z,1017.66
2018-05-04T11:05:42.470Z,1017.65
2018-05-04T11:06:42.547Z,1017.64
2018-05-04T11:07:42.520Z,1017.68
2018-05-04T11:08:42.542Z,1017.65
2018-05-04T11:09:42.563Z,1017.62
2018-05-04T11:10:42.587Z,1017.64
2018-05-04T11:11:42.616Z,1017.64
2018-05-04T11:12:42.636Z,1017.63
2018-05-04T11:13:42.663Z,1017.63
2018-05-04T11:14:42.680Z,1017.64
2018-05-04T11:15:43.056Z,1017.67
2018-05-04T11:16:42.729Z,1017.65
2018-05-04T11:17:42.752Z,1017.65
2018-05-04T11:18:42.778Z,1017.66
2018-05-04T11:19:42.798Z,1017.67
2018-05-04T11:20:42.824Z,1017.62
2018-05-04T11:21:42.845Z,1017.63
2018-05-04T11:22:42.871Z,1017.61
2018-05-04T11:23:42.894Z,1017.62
2018-05-04T11:24:42.918Z,1017.61
2018-05-04T11:25:42.941Z,1017.62
2018-05-04T11:26:42.965Z,1017.67
2018-05-04T11:27:42.992Z,1017.62
2018-05-04T11:28:43.011Z,1017.67
2018-05-04T11:29:43.034Z,1017.61
2018-05-04T11:30:43.059Z,1017.64
2018-05-04T11:31:43.083Z,1017.63
2018-05-04T11:32:43.107Z,1017.62
2018-05-04T11:33:43.133Z,1017.61
2018-05-04T11:34:43.154Z,1017.61
2018-05-04T11:35:43.182Z,1017.61
2018-05-04T11:36:43.203Z,1017.61
2018-05-04T11:37:43.226Z,1017.64
2018-05-04T11:38:43.253Z,1017.65
2018-05-04T11:39:43.274Z,1017.64
2018-05-04T11:40:43.297Z,1017.62
2018-05-04T11:41:43.321Z,1017.61
2018-05-04T11:42:43.344Z,1017.64
2018-05-04T11:43:43.369Z,1017.62
2018-05-04T11:44:43.391Z,1017.67
2018-05-04T11:45:43.416Z,1017.63
2018-05-04T11:46:43.437Z,1017.61
2018-05-04T11:47:43.462Z,1017.65
2018-05-04T11:48:43.487Z,1017.67
2018-05-04T11:49:43.520Z,1017.72
2018-05-04T11:50:43.532Z,1017.65
2018-05-04T11:51:43.558Z,1017.65
2018-05-04T11:52:43.580Z,1017.71
2018-05-04T11:53:43.604Z,1017.75
2018-05-04T11:54:43.627Z,1017.70
2018-05-04T11:55:43.651Z,1017.72
2018-05-04T11:56:43.675Z,1017.67
2018-05-04T11:57:43.700Z,1017.62
2018-05-04T11:58:43.726Z,1017.68
2018-05-04T11:59:43.749Z,1017.64
2018-05-04T12:00:43.768Z,1017.63
2018-05-04T12:01:43.796Z,1017.66
2018-05-04T12:02:43.816Z,1017.64
2018-05-04T12:03:43.974Z,1017.63
2018-05-04T12:04:43.956Z,1017.62
2018-05-04T12:05:43.886Z,1017.63